Airport View

Enter AWOS ICAO identifier for current METAR.

ex. KFNL

KEND 221856Z AUTO 02018G23KT 10SM CLR 30/15 A3015 RMK AO2 PK WND 01026/36 SLP197 T03030148 $

22 Jul 2019 19:15

Other Area AWOS: KWDG - KBKN - KJWG - KGOK

TAF KEND 221800Z 2218/2324 03015G25KT 9999 FEW045 QNH3011INS BECMG 2301/2302 04009KT 9999 FEW060 QNH3012INS TX31/2222Z TN18/2312Z